createdAt,value
2018-05-12T00:00:02.187Z,14.63
2018-05-12T00:02:29.748Z,13.80
2018-05-12T00:04:57.290Z,17.00
2018-05-12T00:07:24.856Z,14.70
2018-05-12T00:09:52.397Z,16.00
2018-05-12T00:12:20.727Z,15.50
2018-05-12T00:14:48.267Z,14.23
2018-05-12T00:17:15.841Z,16.60
2018-05-12T00:19:43.380Z,15.87
2018-05-12T00:22:10.961Z,19.07
2018-05-12T00:24:38.516Z,14.57
2018-05-12T00:27:06.082Z,14.20
2018-05-12T00:29:33.621Z,17.30
2018-05-12T00:32:01.193Z,14.90
2018-05-12T00:34:28.728Z,16.83
2018-05-12T00:36:57.057Z,16.07
2018-05-12T00:39:24.596Z,22.63
2018-05-12T00:41:52.159Z,14.00
2018-05-12T00:44:19.687Z,17.07
2018-05-12T00:46:47.256Z,13.47
2018-05-12T00:49:14.794Z,19.57
2018-05-12T00:51:43.120Z,15.47
2018-05-12T00:54:10.656Z,16.60
2018-05-12T00:56:38.218Z,17.20
2018-05-12T00:59:05.749Z,16.70
2018-05-12T01:01:34.128Z,17.47
2018-05-12T01:04:02.433Z,16.83
2018-05-12T01:06:30.004Z,16.17
2018-05-12T01:08:57.565Z,16.80
2018-05-12T01:11:25.101Z,18.70
2018-05-12T01:13:53.437Z,18.40
2018-05-12T01:16:20.967Z,18.53
2018-05-12T01:18:48.534Z,16.67
2018-05-12T01:21:16.078Z,20.63
2018-05-12T01:23:43.651Z,18.63
2018-05-12T01:26:11.217Z,17.63
2018-05-12T01:28:38.772Z,18.83
2018-05-12T01:31:06.313Z,15.90
2018-05-12T01:33:33.886Z,15.37
2018-05-12T01:36:01.433Z,17.20
2018-05-12T01:38:28.999Z,19.30
2018-05-12T01:40:56.539Z,15.33
2018-05-12T01:43:24.856Z,17.90
2018-05-12T01:45:52.410Z,18.20
2018-05-12T01:48:19.979Z,17.63
2018-05-12T01:50:47.509Z,17.60
2018-05-12T01:53:15.068Z,15.23
2018-05-12T01:55:42.610Z,19.43
2018-05-12T01:58:10.946Z,18.57
2018-05-12T02:00:38.517Z,15.80
2018-05-12T02:03:06.093Z,16.60
2018-05-12T02:05:33.620Z,16.63
2018-05-12T02:08:01.191Z,16.87
2018-05-12T02:10:28.731Z,19.37
2018-05-12T02:12:56.293Z,15.67
2018-05-12T02:15:23.823Z,18.13
2018-05-12T02:17:52.144Z,14.40
2018-05-12T02:20:19.684Z,15.93
2018-05-12T02:22:47.251Z,15.77
2018-05-12T02:25:14.786Z,16.80
2018-05-12T02:27:42.357Z,15.23
2018-05-12T02:30:09.897Z,16.27
2018-05-12T02:32:38.230Z,16.77
2018-05-12T02:35:05.770Z,15.83
2018-05-12T02:37:33.329Z,15.23
2018-05-12T02:40:00.889Z,16.53
2018-05-12T02:42:28.429Z,15.77
2018-05-12T02:44:55.996Z,16.03
2018-05-12T02:47:23.539Z,14.50
2018-05-12T02:49:51.869Z,20.80
2018-05-12T02:52:19.408Z,17.57
2018-05-12T02:54:46.973Z,17.77
2018-05-12T02:57:14.535Z,17.90
2018-05-12T02:59:42.109Z,16.90
2018-05-12T03:02:09.640Z,16.10
2018-05-12T03:04:37.209Z,16.97
2018-05-12T03:07:04.744Z,14.70
2018-05-12T03:09:32.303Z,16.30
2018-05-12T03:11:59.850Z,18.53
2018-05-12T03:14:28.190Z,14.60
2018-05-12T03:16:55.721Z,16.23
2018-05-12T03:19:23.284Z,15.23
2018-05-12T03:21:51.746Z,16.33
2018-05-12T03:24:20.082Z,13.53
2018-05-12T03:26:47.619Z,13.93
2018-05-12T03:29:15.176Z,14.07
2018-05-12T03:31:42.744Z,14.60
2018-05-12T03:34:10.286Z,16.20
2018-05-12T03:36:37.850Z,14.43
2018-05-12T03:39:05.389Z,15.70
2018-05-12T03:41:32.960Z,14.30
2018-05-12T03:44:00.488Z,15.87
2018-05-12T03:46:28.052Z,14.40
2018-05-12T03:48:56.352Z,18.60
2018-05-12T03:51:23.913Z,16.67
2018-05-12T03:53:51.448Z,15.37
2018-05-12T03:56:19.795Z,16.60
2018-05-12T03:58:47.329Z,16.20
2018-05-12T04:01:14.883Z,14.93
2018-05-12T04:03:42.438Z,16.43
2018-05-12T04:06:21.773Z,15.43
2018-05-12T04:09:02.060Z,14.60
2018-05-12T04:11:41.436Z,13.20
2018-05-12T04:14:09.008Z,17.50
2018-05-12T04:16:37.304Z,15.80
2018-05-12T04:19:04.911Z,13.17
2018-05-12T04:21:32.453Z,15.30
2018-05-12T04:24:00.018Z,12.80
2018-05-12T04:26:27.540Z,14.57
2018-05-12T04:28:55.099Z,12.70
2018-05-12T04:31:22.638Z,15.00
2018-05-12T04:33:50.973Z,12.40
2018-05-12T04:36:18.505Z,13.93
2018-05-12T04:38:46.072Z,14.33
2018-05-12T04:41:13.609Z,14.47
2018-05-12T04:43:41.938Z,13.27
2018-05-12T04:46:09.477Z,13.03
2018-05-12T04:48:37.038Z,14.13
2018-05-12T04:51:04.572Z,16.90
2018-05-12T04:53:32.145Z,12.80
2018-05-12T04:55:59.685Z,15.43
2018-05-12T04:58:28.007Z,14.27
2018-05-12T05:00:55.538Z,14.07
2018-05-12T05:03:23.118Z,14.47
2018-05-12T05:05:50.652Z,14.23
2018-05-12T05:08:19.029Z,12.77
2018-05-12T05:10:46.553Z,13.53
2018-05-12T05:13:14.086Z,13.87
2018-05-12T05:15:41.656Z,12.97
2018-05-12T05:18:09.204Z,14.23
2018-05-12T05:20:36.778Z,13.37
2018-05-12T05:23:04.305Z,14.83
2018-05-12T05:25:31.860Z,12.73
2018-05-12T05:27:59.408Z,15.67
2018-05-12T05:30:27.736Z,13.63
2018-05-12T05:32:55.273Z,14.00
2018-05-12T05:35:22.839Z,14.70
2018-05-12T05:37:50.373Z,15.73
2018-05-12T05:40:18.703Z,14.00
2018-05-12T05:42:46.237Z,14.47
2018-05-12T05:45:13.803Z,12.50
2018-05-12T05:47:41.346Z,13.73
2018-05-12T05:50:08.996Z,16.27
2018-05-12T05:52:36.486Z,16.53
2018-05-12T05:55:04.056Z,13.37
2018-05-12T05:57:31.601Z,14.00
2018-05-12T05:59:59.173Z,14.73
2018-05-12T06:02:26.704Z,16.17
2018-05-12T06:04:54.269Z,14.60
2018-05-12T06:07:21.806Z,15.07
2018-05-12T06:09:49.377Z,14.37
2018-05-12T06:12:16.921Z,16.00
2018-05-12T06:14:45.231Z,15.13
2018-05-12T06:17:12.799Z,16.13
2018-05-12T06:19:40.345Z,17.57
2018-05-12T06:22:07.920Z,14.53
2018-05-12T06:24:35.456Z,15.80
2018-05-12T06:27:03.028Z,18.43
2018-05-12T06:29:30.574Z,15.07
2018-05-12T06:31:58.176Z,17.57
2018-05-12T06:34:25.718Z,16.17
2018-05-12T06:36:53.292Z,15.73
2018-05-12T06:39:20.831Z,18.13
2018-05-12T06:41:48.399Z,16.33
2018-05-12T06:44:15.954Z,15.83
2018-05-12T06:46:43.521Z,16.13
2018-05-12T06:49:11.086Z,14.10
2018-05-12T06:51:38.648Z,13.87
2018-05-12T06:54:06.187Z,14.40
2018-05-12T06:56:33.761Z,16.20
2018-05-12T06:59:01.294Z,15.33
2018-05-12T07:01:29.648Z,13.07
2018-05-12T07:03:57.193Z,12.93
2018-05-12T07:06:24.762Z,14.97
2018-05-12T07:08:52.315Z,15.10
2018-05-12T07:11:19.894Z,12.93
2018-05-12T07:13:47.457Z,13.87
2018-05-12T07:16:15.025Z,16.80
2018-05-12T07:18:43.353Z,13.07
2018-05-12T07:21:10.918Z,13.27
2018-05-12T07:23:38.479Z,12.10
2018-05-12T07:26:06.068Z,11.83
2018-05-12T07:28:33.646Z,13.67
2018-05-12T07:31:01.953Z,12.60
2018-05-12T07:33:29.510Z,12.23
2018-05-12T07:35:57.037Z,12.10
2018-05-12T07:38:24.613Z,12.90
2018-05-12T07:40:52.954Z,13.10
2018-05-12T07:43:20.538Z,15.63
2018-05-12T07:45:48.118Z,14.07
2018-05-12T07:48:16.456Z,15.23
2018-05-12T07:50:43.981Z,13.67
2018-05-12T07:53:12.312Z,13.27
2018-05-12T07:55:39.854Z,13.57
2018-05-12T07:58:07.418Z,12.63
2018-05-12T08:00:34.959Z,13.30
2018-05-12T08:03:02.525Z,13.07
2018-05-12T08:05:30.082Z,12.27
2018-05-12T08:07:57.643Z,11.33
2018-05-12T08:10:25.184Z,10.77
2018-05-12T08:12:52.760Z,12.00
2018-05-12T08:15:20.321Z,13.03
2018-05-12T08:17:47.891Z,12.87
2018-05-12T08:20:15.431Z,10.63
2018-05-12T08:22:43.009Z,11.30
2018-05-12T08:25:10.543Z,10.07
2018-05-12T08:27:38.105Z,11.70
2018-05-12T08:30:05.643Z,10.73
2018-05-12T08:32:33.975Z,10.30
2018-05-12T08:35:01.586Z,13.07
2018-05-12T08:37:29.105Z,11.93
2018-05-12T08:39:56.645Z,11.43
2018-05-12T08:42:24.216Z,8.53
2018-05-12T08:44:51.770Z,9.53
2018-05-12T08:47:19.335Z,8.87
2018-05-12T08:49:46.879Z,10.27
2018-05-12T08:52:14.439Z,9.33
2018-05-12T08:54:41.984Z,12.23
2018-05-12T08:57:10.296Z,11.80
2018-05-12T08:59:37.913Z,12.37
2018-05-12T09:02:05.447Z,11.07
2018-05-12T09:04:33.771Z,9.43
2018-05-12T09:07:01.305Z,10.37
2018-05-12T09:09:28.869Z,10.10
2018-05-12T09:11:56.408Z,13.37
2018-05-12T09:14:24.738Z,11.93
2018-05-12T09:16:52.281Z,13.00
2018-05-12T09:19:19.864Z,10.17
2018-05-12T09:21:47.385Z,12.00
2018-05-12T09:24:14.945Z,11.97
2018-05-12T09:26:42.476Z,10.27
2018-05-12T09:29:10.040Z,11.63
2018-05-12T09:31:37.580Z,10.47
2018-05-12T09:34:05.149Z,9.50
2018-05-12T09:36:32.678Z,12.70
2018-05-12T09:39:00.241Z,9.87
2018-05-12T09:41:27.766Z,13.33
2018-05-12T09:43:55.329Z,11.23
2018-05-12T09:46:22.864Z,10.87
2018-05-12T09:48:50.439Z,10.53
2018-05-12T09:51:17.981Z,11.13
2018-05-12T09:53:46.335Z,10.00
2018-05-12T09:56:13.873Z,10.63
2018-05-12T09:58:41.431Z,9.00
2018-05-12T10:01:08.958Z,10.30
2018-05-12T10:03:36.541Z,10.03
2018-05-12T10:06:04.073Z,10.17
2018-05-12T10:08:32.448Z,9.10
2018-05-12T10:11:00.735Z,8.70
2018-05-12T10:13:29.065Z,8.70
2018-05-12T10:15:56.603Z,9.20
2018-05-12T10:18:24.168Z,10.87
2018-05-12T10:20:51.696Z,10.93
2018-05-12T10:23:19.256Z,8.67
2018-05-12T10:25:46.777Z,9.60
2018-05-12T10:28:14.324Z,10.90
2018-05-12T10:30:41.857Z,8.90
2018-05-12T10:33:09.396Z,8.30
2018-05-12T10:35:37.722Z,8.07
2018-05-12T10:38:05.251Z,8.77
2018-05-12T10:40:32.811Z,10.13
2018-05-12T10:43:00.338Z,6.93
2018-05-12T10:45:27.988Z,9.43
2018-05-12T10:47:55.458Z,8.60
2018-05-12T10:50:23.029Z,10.07
2018-05-12T10:52:51.338Z,8.43
2018-05-12T10:55:18.928Z,10.63
2018-05-12T10:57:46.499Z,9.37
2018-05-12T11:00:14.091Z,9.47
2018-05-12T11:02:42.405Z,9.00
2018-05-12T11:05:09.970Z,9.80
2018-05-12T11:07:37.502Z,9.63
2018-05-12T11:10:05.073Z,10.87
2018-05-12T11:12:32.622Z,10.47
2018-05-12T11:15:00.186Z,10.37
2018-05-12T11:17:27.725Z,10.70
2018-05-12T11:19:56.067Z,9.13
2018-05-12T11:22:23.614Z,9.57
2018-05-12T11:24:51.174Z,9.77
2018-05-12T11:27:18.704Z,10.17
2018-05-12T11:29:46.271Z,11.20
2018-05-12T11:32:13.858Z,8.63
2018-05-12T11:34:41.373Z,9.70
2018-05-12T11:37:09.686Z,8.20
2018-05-12T11:39:37.253Z,9.13
2018-05-12T11:42:04.792Z,9.40
2018-05-12T11:44:32.412Z,9.40
2018-05-12T11:46:59.887Z,8.57
2018-05-12T11:49:27.516Z,8.30
2018-05-12T11:51:55.056Z,10.80
2018-05-12T11:54:22.617Z,9.27
2018-05-12T11:56:50.165Z,12.27
2018-05-12T11:59:17.725Z,9.07
2018-05-12T12:01:45.268Z,8.87
2018-05-12T12:04:12.812Z,7.50
2018-05-12T12:06:40.380Z,8.87
2018-05-12T12:09:07.919Z,6.50
2018-05-12T12:11:35.485Z,7.10
2018-05-12T12:14:03.027Z,7.53
2018-05-12T12:16:30.678Z,8.93
2018-05-12T12:18:58.152Z,8.80
2018-05-12T12:21:25.716Z,9.40
2018-05-12T12:23:53.255Z,6.82
2018-05-12T12:26:20.814Z,6.75
2018-05-12T12:28:48.354Z,6.07
2018-05-12T12:31:15.931Z,7.35
2018-05-12T12:33:43.719Z,7.53
2018-05-12T12:36:11.292Z,7.07
2018-05-12T12:38:39.605Z,5.85
2018-05-12T12:41:07.173Z,7.37
2018-05-12T12:43:34.714Z,7.87
2018-05-12T12:46:02.290Z,7.78
2018-05-12T12:48:29.833Z,8.45
2018-05-12T12:50:57.396Z,8.60
2018-05-12T12:53:24.934Z,6.22
2018-05-12T12:55:53.281Z,6.57
2018-05-12T12:58:20.859Z,7.20
2018-05-12T13:00:48.430Z,6.87
2018-05-12T13:03:15.975Z,7.57
2018-05-12T13:05:43.542Z,10.07
2018-05-12T13:08:11.072Z,7.97
2018-05-12T13:10:38.645Z,9.02
2018-05-12T13:13:06.186Z,7.95
2018-05-12T13:15:33.760Z,9.48
2018-05-12T13:18:01.330Z,6.95
2018-05-12T13:20:28.893Z,7.55
2018-05-12T13:22:56.430Z,6.75
2018-05-12T13:25:23.987Z,8.52
2018-05-12T13:27:51.543Z,10.13
2018-05-12T13:30:19.103Z,9.13
2018-05-12T13:32:46.646Z,9.77
2018-05-12T13:35:14.173Z,9.23
2018-05-12T13:37:42.500Z,9.05
2018-05-12T13:40:10.041Z,8.90
2018-05-12T13:42:37.604Z,8.55
2018-05-12T13:45:05.153Z,11.55
2018-05-12T13:47:32.776Z,9.75
2018-05-12T13:50:00.321Z,9.35
2018-05-12T13:52:27.880Z,10.85
2018-05-12T13:54:55.424Z,9.35
2018-05-12T13:57:22.991Z,9.93
2018-05-12T13:59:50.525Z,11.30
2018-05-12T14:02:18.108Z,9.75
2018-05-12T14:04:45.641Z,9.57
2018-05-12T14:07:13.208Z,11.75
2018-05-12T14:09:40.752Z,11.90
2018-05-12T14:12:09.099Z,11.32
2018-05-12T14:14:36.645Z,9.90
2018-05-12T14:17:04.213Z,9.63
2018-05-12T14:19:31.784Z,10.60
2018-05-12T14:22:00.153Z,9.57
2018-05-12T14:24:27.688Z,10.65
2018-05-12T14:26:55.252Z,11.93
2018-05-12T14:29:22.795Z,10.32
2018-05-12T14:31:50.354Z,8.65
2018-05-12T14:34:17.902Z,9.02
2018-05-12T14:36:45.469Z,11.85
2018-05-12T14:39:13.013Z,10.30
2018-05-12T14:41:41.351Z,9.48
2018-05-12T14:44:08.897Z,10.52
2018-05-12T14:46:36.466Z,10.77
2018-05-12T14:49:04.008Z,11.40
2018-05-12T14:51:31.605Z,11.18
2018-05-12T14:53:59.151Z,11.38
2018-05-12T14:56:26.715Z,11.52
2018-05-12T14:58:54.258Z,10.20
2018-05-12T15:01:21.830Z,12.20
2018-05-12T15:03:49.373Z,8.88
2018-05-12T15:06:16.961Z,12.43
2018-05-12T15:08:44.496Z,9.85
2018-05-12T15:11:12.045Z,10.93
2018-05-12T15:13:39.613Z,11.02
2018-05-12T15:16:07.172Z,12.88
2018-05-12T15:18:34.746Z,12.15
2018-05-12T15:21:02.290Z,13.10
2018-05-12T15:23:29.870Z,11.93
2018-05-12T15:25:57.413Z,11.93
2018-05-12T15:28:24.991Z,12.35
2018-05-12T15:30:52.533Z,12.35
2018-05-12T15:33:20.125Z,12.45
2018-05-12T15:35:47.673Z,11.20
2018-05-12T15:38:15.246Z,11.90
2018-05-12T15:40:42.798Z,12.30
2018-05-12T15:43:10.362Z,11.12
2018-05-12T15:45:37.911Z,13.32
2018-05-12T15:48:05.489Z,13.25
2018-05-12T15:50:33.038Z,12.70
2018-05-12T15:53:00.613Z,15.85
2018-05-12T15:55:28.161Z,14.05
2018-05-12T15:57:55.803Z,15.38
2018-05-12T16:00:23.336Z,15.45
2018-05-12T16:02:50.915Z,17.02
2018-05-12T16:05:18.462Z,14.70
2018-05-12T16:07:46.041Z,14.55
2018-05-12T16:10:13.589Z,15.77
2018-05-12T16:12:41.158Z,17.20
2018-05-12T16:15:08.705Z,15.90
2018-05-12T16:17:36.276Z,17.05
2018-05-12T16:20:03.826Z,14.20
2018-05-12T16:22:31.393Z,16.33
2018-05-12T16:24:58.928Z,14.40
2018-05-12T16:27:26.510Z,15.75
2018-05-12T16:29:54.055Z,16.70
2018-05-12T16:32:21.637Z,15.98
2018-05-12T16:34:49.190Z,15.65
2018-05-12T16:37:16.745Z,15.45
2018-05-12T16:39:44.322Z,15.93
2018-05-12T16:42:11.863Z,16.80
2018-05-12T16:44:39.472Z,17.17
2018-05-12T16:47:07.006Z,15.57
2018-05-12T16:49:34.580Z,16.65
2018-05-12T16:52:02.210Z,19.15
2018-05-12T16:54:30.555Z,16.77
2018-05-12T16:56:58.109Z,18.30
2018-05-12T16:59:25.689Z,15.63
2018-05-12T17:01:53.230Z,17.12
2018-05-12T17:04:20.804Z,15.68
2018-05-12T17:06:48.362Z,19.70
2018-05-12T17:09:15.928Z,17.25
2018-05-12T17:11:43.483Z,17.85
2018-05-12T17:14:11.058Z,19.00
2018-05-12T17:16:38.614Z,19.02
2018-05-12T17:19:06.190Z,18.27
2018-05-12T17:21:33.729Z,18.50
2018-05-12T17:24:01.292Z,17.08
2018-05-12T17:26:28.833Z,15.80
2018-05-12T17:28:56.407Z,17.83
2018-05-12T17:31:23.949Z,18.90
2018-05-12T17:33:51.523Z,16.20
2018-05-12T17:36:19.833Z,17.03
2018-05-12T17:38:47.411Z,18.43
2018-05-12T17:41:14.953Z,16.13
2018-05-12T17:43:42.530Z,17.60
2018-05-12T17:46:10.081Z,18.03
2018-05-12T17:48:37.641Z,18.57
2018-05-12T17:51:05.190Z,21.03
2018-05-12T17:53:33.522Z,19.67
2018-05-12T17:56:01.072Z,20.03
2018-05-12T17:58:28.642Z,21.27
2018-05-12T18:00:56.186Z,17.80
2018-05-12T18:03:23.757Z,16.67
2018-05-12T18:05:51.337Z,17.77
2018-05-12T18:08:18.880Z,17.53
2018-05-12T18:10:46.456Z,18.47
2018-05-12T18:13:14.002Z,19.60
2018-05-12T18:15:41.577Z,18.77
2018-05-12T18:18:09.125Z,19.37
2018-05-12T18:20:36.699Z,19.67
2018-05-12T18:23:04.280Z,18.33
2018-05-12T18:25:31.820Z,16.93
2018-05-12T18:27:59.368Z,17.73
2018-05-12T18:30:26.949Z,19.77
2018-05-12T18:32:54.494Z,17.60
2018-05-12T18:35:22.872Z,19.17
2018-05-12T18:37:50.413Z,19.50
2018-05-12T18:40:17.990Z,18.37
2018-05-12T18:42:45.542Z,19.57
2018-05-12T18:45:13.114Z,20.20
2018-05-12T18:47:40.661Z,18.90
2018-05-12T18:50:08.234Z,19.23
2018-05-12T18:52:35.775Z,20.50
2018-05-12T18:55:03.350Z,20.57
2018-05-12T18:57:30.895Z,18.67
2018-05-12T18:59:58.469Z,22.80
2018-05-12T19:02:26.026Z,19.47
2018-05-12T19:04:53.607Z,19.23
2018-05-12T19:07:21.154Z,19.57
2018-05-12T19:09:48.735Z,19.57
2018-05-12T19:12:16.295Z,19.37
2018-05-12T19:14:43.871Z,18.83
2018-05-12T19:17:11.454Z,18.87
2018-05-12T19:19:39.024Z,19.70
2018-05-12T19:22:06.575Z,19.63
2018-05-12T19:24:34.141Z,21.17
2018-05-12T19:27:01.693Z,20.97
2018-05-12T19:29:29.257Z,22.27
2018-05-12T19:31:56.794Z,21.73
2018-05-12T19:34:24.339Z,23.20
2018-05-12T19:36:51.910Z,20.10
2018-05-12T19:39:20.224Z,24.63
2018-05-12T19:41:47.795Z,21.23
2018-05-12T19:44:15.332Z,20.27
2018-05-12T19:46:42.905Z,22.13
2018-05-12T19:49:10.455Z,23.00
2018-05-12T19:51:38.033Z,23.57
2018-05-12T19:54:05.583Z,19.30
2018-05-12T19:56:33.165Z,21.43
2018-05-12T19:59:00.718Z,21.43
2018-05-12T20:01:28.299Z,21.77
2018-05-12T20:03:55.858Z,19.67
2018-05-12T20:06:23.426Z,23.03
2018-05-12T20:08:50.976Z,21.23
2018-05-12T20:11:18.545Z,22.50
2018-05-12T20:13:46.099Z,22.57
2018-05-12T20:16:13.672Z,20.53
2018-05-12T20:18:41.220Z,21.00
2018-05-12T20:21:08.794Z,19.50
2018-05-12T20:23:36.344Z,19.87
2018-05-12T20:26:03.918Z,22.33
2018-05-12T20:28:31.474Z,19.37
2018-05-12T20:30:59.074Z,20.60
2018-05-12T20:33:26.621Z,19.50
2018-05-12T20:35:54.958Z,18.27
2018-05-12T20:38:22.511Z,20.50
2018-05-12T20:40:50.105Z,19.53
2018-05-12T20:43:17.646Z,20.43
2018-05-12T20:45:45.231Z,20.77
2018-05-12T20:48:12.772Z,19.80
2018-05-12T20:50:40.353Z,18.07
2018-05-12T20:53:08.662Z,18.07
2018-05-12T20:55:36.205Z,19.77
2018-05-12T20:58:03.772Z,18.40
2018-05-12T21:00:31.308Z,18.90
2018-05-12T21:02:58.945Z,21.93
2018-05-12T21:05:26.451Z,17.73
2018-05-12T21:07:54.030Z,18.60
2018-05-12T21:10:21.572Z,21.60
2018-05-12T21:12:49.146Z,18.57
2018-05-12T21:15:16.745Z,19.37
2018-05-12T21:17:44.327Z,18.87
2018-05-12T21:20:11.873Z,18.70
2018-05-12T21:22:39.457Z,20.47
2018-05-12T21:25:07.003Z,19.77
2018-05-12T21:27:34.580Z,19.37
2018-05-12T21:30:02.114Z,19.40
2018-05-12T21:32:29.696Z,17.67
2018-05-12T21:34:57.226Z,20.60
2018-05-12T21:37:24.804Z,20.97
2018-05-12T21:39:52.359Z,20.73
2018-05-12T21:42:19.905Z,21.43
2018-05-12T21:44:47.475Z,20.20
2018-05-12T21:47:15.022Z,19.77
2018-05-12T21:49:42.597Z,20.17
2018-05-12T21:52:10.145Z,25.57
2018-05-12T21:54:37.713Z,23.70
2018-05-12T21:57:05.264Z,19.57
2018-05-12T21:59:32.847Z,23.73
2018-05-12T22:02:00.384Z,24.83
2018-05-12T22:04:27.958Z,21.33
2018-05-12T22:06:55.522Z,25.20
2018-05-12T22:09:23.135Z,21.80
2018-05-12T22:11:50.686Z,22.57
2018-05-12T22:14:18.266Z,22.23
2018-05-12T22:16:45.809Z,23.33
2018-05-12T22:19:13.386Z,22.77
2018-05-12T22:21:40.925Z,21.23
2018-05-12T22:24:08.500Z,23.90
2018-05-12T22:26:36.045Z,21.23
2018-05-12T22:29:03.626Z,23.53
2018-05-12T22:31:31.194Z,22.33
2018-05-12T22:33:58.767Z,25.20
2018-05-12T22:36:26.308Z,22.33
2018-05-12T22:38:53.878Z,22.27
2018-05-12T22:41:21.429Z,21.73
2018-05-12T22:43:48.992Z,25.03
2018-05-12T22:46:16.535Z,22.83
2018-05-12T22:48:44.085Z,22.50
2018-05-12T22:51:11.659Z,23.00
2018-05-12T22:53:39.224Z,22.00
2018-05-12T22:56:06.784Z,22.30
2018-05-12T22:58:34.330Z,24.63
2018-05-12T23:01:01.927Z,23.77
2018-05-12T23:03:29.472Z,24.97
2018-05-12T23:05:57.040Z,24.77
2018-05-12T23:08:24.595Z,22.70
2018-05-12T23:10:52.181Z,23.33
2018-05-12T23:13:19.730Z,21.00
2018-05-12T23:15:47.305Z,22.33
2018-05-12T23:18:14.841Z,23.97
2018-05-12T23:20:42.410Z,23.17
2018-05-12T23:23:09.950Z,22.60
2018-05-12T23:25:37.546Z,22.23
2018-05-12T23:28:05.089Z,25.97
2018-05-12T23:30:32.666Z,25.93
2018-05-12T23:33:00.213Z,23.63
2018-05-12T23:35:27.777Z,23.13
2018-05-12T23:37:55.392Z,23.50
2018-05-12T23:40:22.894Z,22.73
2018-05-12T23:42:50.475Z,22.43
2018-05-12T23:45:18.019Z,21.73
2018-05-12T23:47:45.606Z,25.87
2018-05-12T23:50:13.159Z,23.73
2018-05-12T23:52:40.736Z,22.17
2018-05-12T23:55:08.285Z,22.37
2018-05-12T23:57:35.875Z,25.70
